Terminal Aerodrome Forecast
Issued by NWS

Current Version | Previous Version | Graphics & Text | Print | Product List | Glossary On
Versions: 1 2 3 4 5 6 7 8 9 10 11 12 13 14 15 16 17 18 19 20 21 22 23 24 25
861
FTUS41 KILN 261427 AAA
TAFLUK
TAF AMD
KLUK 261427Z 2614/2712 17006KT P6SM -RA FEW025 OVC035
      TEMPO 2614/2616 3SM SHRA OVC015
     FM261600 18009KT P6SM -SHRA VCTS OVC035CB
      TEMPO 2617/2621 3SM SHRA OVC025
     FM262100 20008KT P6SM VCSH BKN050
     FM270400 23006KT P6SM BKN070
     FM270900 VRB03KT P6SM BKN035=

USA.gov is the U.S. government's official web portal to all federal, state and local government web resources and services.